• Join FlightAware (Why Join?)
  • Login
  • US Flag 
08:29AM EST


 

Airport Tracker/Info


-or-


 

Live Flight TrackerFlight Track Log ✈ CPT8773 ✈ 26-Sep-2013 ✈ KCPR - KCOD

Flight Track Log - Related Links

Times and Time Zones

All times are in EDT time to prevent confusion due to time zone crossing. See the CPT8773 flight status page for this flight to view local times or setup timezone preferences in your user account.

Time Position Orientation Groundspeed Altitude Reporting Facility
EDT Latitude Longitude Course Direction KTS MPH feet Rate Location/Type
09:20AM 42.9500 -106.5372 326° Northwest 112 129 7,300  Level Salt Lake Center
09:21AM 42.9803 -106.5475 346° North 114 131 7,900 600 Climbing Salt Lake Center
09:22AM 43.0161 -106.5572 349° North 117 135 8,600 540 Climbing Denver Center
09:23AM 43.0475 -106.5681 346° North 119 137 9,100 480 Climbing Denver Center
09:24AM 43.1487 -106.8323 305° West  Level Estimated
09:24AM 43.0800 -106.5783 347° North 121 139 9,600  Level Denver Center
09:25AM 43.1820 -106.8628 326° Northwest  Level FlightAware Approximate
09:25AM 43.1158 -106.5892 348° North 120 138 10,200  Level Denver Center
09:26AM 43.1475 -106.5961 351° North 120 138 10,500 300 Climbing Denver Center
09:27AM 43.1850 -106.6078 347° North 122 140 10,900 360 Climbing Denver Center
09:28AM 43.2189 -106.6169 349° North 129 148 11,300 360 Climbing Denver Center
09:29AM 43.2533 -106.6231 353° North 130 150 11,700 360 Climbing Denver Center
09:30AM 43.2872 -106.6453 334° Northwest 124 143 12,100 180 Climbing Denver Center
09:31AM 43.3061 -106.6847 303° West 125 144 12,100  Level Salt Lake Center
09:32AM 43.3292 -106.7247 308° West 136 157 12,100 -60 Level Salt Lake Center
09:33AM 43.3550 -106.7778 304° West 147 169 12,000  Descending Salt Lake Center
09:34AM 43.3794 -106.8189 309° West 146 168 12,100  Climbing Salt Lake Center
09:35AM 43.4058 -106.8681 306° West 144 166 12,000  Descending Salt Lake Center
09:36AM 43.4275 -106.9108 305° West 143 165 12,100  Climbing Salt Lake Center
09:37AM 43.4497 -106.9650 299° West 147 169 12,100 -60 Level Salt Lake Center
09:38AM 43.4736 -107.0125 305° West 151 174 12,000  Descending Salt Lake Center
09:39AM 43.4969 -107.0600 304° West 150 173 12,100  Climbing Salt Lake Center
09:40AM 43.5211 -107.1044 307° West 146 168 12,000  Descending Salt Lake Center
09:41AM 43.5453 -107.1497 306° West 147 169 12,100  Climbing Salt Lake Center
09:42AM 43.5667 -107.1911 306° West 137 158 12,100 -60 Level Salt Lake Center
09:43AM 43.5914 -107.2356 308° West 143 165 12,000 -60 Descending Salt Lake Center
09:44AM 43.6156 -107.2792 307° West 144 166 12,000  Level Salt Lake Center
09:45AM 43.6386 -107.3250 305° West 145 167 12,100  Climbing Salt Lake Center
09:46AM 43.6681 -107.3797 307° West 147 169 12,100  Level Salt Lake Center
09:47AM 43.6936 -107.4261 307° West 149 171 12,100  Level Salt Lake Center
09:48AM 43.7194 -107.4747 306° West 152 175 12,100  Level Salt Lake Center
09:49AM 43.7450 -107.5236 306° West 154 177 12,100  Level Salt Lake Center
09:50AM 43.7692 -107.5719 305° West 154 177 12,100  Level Salt Lake Center
09:51AM 43.7958 -107.6197 308° West 156 180 12,100  Level Salt Lake Center
09:52AM 43.8211 -107.6675 306° West 155 178 12,100  Level Salt Lake Center
09:53AM 43.8450 -107.7161 304° West 154 177 12,100  Level Salt Lake Center
09:54AM 43.8706 -107.7639 307° West 154 177 12,100  Level Salt Lake Center
09:55AM 43.9008 -107.8217 306° West 154 177 12,100  Level Salt Lake Center
09:57AM 43.9256 -107.8689 306° West 154 177 12,100  Level Salt Lake Center
09:58AM 43.9503 -107.9164 306° West 152 175 12,100  Level Salt Lake Center
09:59AM 43.9750 -107.9636 306° West 152 175 12,100  Level Salt Lake Center
10:00AM 43.9997 -108.0114 306° West 152 175 12,100  Level Salt Lake Center
10:01AM 44.0253 -108.0592 307° West 153 176 12,100  Level Salt Lake Center
10:02AM 44.0497 -108.1075 305° West 153 176 12,100  Level Salt Lake Center
10:03AM 44.0742 -108.1558 305° West 153 176 12,100  Level Salt Lake Center
10:04AM 44.0992 -108.2044 306° West 154 177 12,100  Level Salt Lake Center
10:05AM 44.1306 -108.2631 307° West 155 178 12,100  Level Salt Lake Center
10:06AM 44.1564 -108.3150 305° West 158 182 12,100  Level Salt Lake Center
10:07AM 44.1825 -108.3658 306° West 160 184 12,100  Level Salt Lake Center
10:08AM 44.2089 -108.4169 306° West 161 185 12,100 -240 Level Salt Lake Center
10:09AM 44.2383 -108.4633 312° West 162 186 11,700 -600 Descending Salt Lake Center
10:10AM 44.2897 -108.4903 339° North 186 214 10,900 -840 Descending Salt Lake Center
10:11AM 44.3386 -108.5192 337° Northwest 189 217 10,000 -900 Descending Salt Lake Center
10:12AM 44.3875 -108.5503 336° Northwest 191 220 9,100 -540 Descending Salt Lake Center
10:13AM 44.4408 -108.5853 335° Northwest 186 214 9,000 -60 Descending Salt Lake Center
10:14AM 44.4803 -108.6122 334° Northwest 174 200 9,000  Level Salt Lake Center
10:15AM 44.5192 -108.6361 336° Northwest 163 188 9,000  Level Salt Lake Center
10:16AM 44.5572 -108.6594 336° Northwest 156 180 9,000 -180 Level Salt Lake Center
10:17AM 44.5928 -108.6878 330° Northwest 152 175 8,700 -420 Descending Salt Lake Center
10:18AM 44.6283 -108.7275 322° Northwest 156 180 8,200 -360 Descending Salt Lake Center
10:19AM 44.6547 -108.7731 309° West 165 190 8,000 -360 Descending Salt Lake Center
10:20AM 44.6342 -108.8222 240° Southwest 153 176 7,500 -300 Descending Salt Lake Center
10:21AM 44.6058 -108.8761 234° Southwest 148 170 7,500 -360 Level Salt Lake Center
10:22AM 44.5822 -108.9178 232° Southwest 142 163 6,800 -780 Descending Salt Lake Center
10:23AM 44.5558 -108.9633 231° Southwest 144 166 6,000 -780 Descending Salt Lake Center